sensor_id;sensor_type;location;lat;lon;timestamp;temperature;humidity
10468;DHT22;5281;48.878;9.394;2023-03-22T00:01:16;11.10;99.90
10468;DHT22;5281;48.878;9.394;2023-03-22T00:03:44;11.00;99.90
10468;DHT22;5281;48.878;9.394;2023-03-22T00:06:12;10.90;99.90
10468;DHT22;5281;48.878;9.394;2023-03-22T00:08:40;10.80;99.90
10468;DHT22;5281;48.878;9.394;2023-03-22T00:11:07;10.80;99.90
10468;DHT22;5281;48.878;9.394;2023-03-22T00:13:34;10.70;99.90
10468;DHT22;5281;48.878;9.394;2023-03-22T00:16:02;10.60;99.90
10468;DHT22;5281;48.878;9.394;2023-03-22T00:18:29;10.60;99.90
10468;DHT22;5281;48.878;9.394;2023-03-22T00:20:57;10.50;99.90
10468;DHT22;5281;48.878;9.394;2023-03-22T00:23:25;10.50;99.90
10468;DHT22;5281;48.878;9.394;2023-03-22T00:25:54;10.30;99.90
10468;DHT22;5281;48.878;9.394;2023-03-22T00:28:21;10.20;99.90
10468;DHT22;5281;48.878;9.394;2023-03-22T00:30:53;10.10;99.90
10468;DHT22;5281;48.878;9.394;2023-03-22T00:33:21;10.10;99.90
10468;DHT22;5281;48.878;9.394;2023-03-22T00:35:49;10.00;99.90
10468;DHT22;5281;48.878;9.394;2023-03-22T00:38:16;9.90;99.90
10468;DHT22;5281;48.878;9.394;2023-03-22T00:40:43;9.90;99.90
10468;DHT22;5281;48.878;9.394;2023-03-22T00:43:11;9.90;99.90
10468;DHT22;5281;48.878;9.394;2023-03-22T00:45:39;9.90;99.90
10468;DHT22;5281;48.878;9.394;2023-03-22T00:48:07;10.00;99.90
10468;DHT22;5281;48.878;9.394;2023-03-22T00:50:34;10.00;99.90
10468;DHT22;5281;48.878;9.394;2023-03-22T00:53:01;10.00;99.90
10468;DHT22;5281;48.878;9.394;2023-03-22T00:55:28;10.10;99.90
10468;DHT22;5281;48.878;9.394;2023-03-22T00:57:55;10.10;99.90
10468;DHT22;5281;48.878;9.394;2023-03-22T01:00:24;10.10;99.90
10468;DHT22;5281;48.878;9.394;2023-03-22T01:02:51;9.90;99.90
10468;DHT22;5281;48.878;9.394;2023-03-22T01:05:24;9.80;99.90
10468;DHT22;5281;48.878;9.394;2023-03-22T01:07:52;9.70;99.90
10468;DHT22;5281;48.878;9.394;2023-03-22T01:10:20;9.60;99.90
10468;DHT22;5281;48.878;9.394;2023-03-22T01:12:46;9.50;99.90
10468;DHT22;5281;48.878;9.394;2023-03-22T01:15:13;9.50;99.90
10468;DHT22;5281;48.878;9.394;2023-03-22T01:17:41;9.50;99.90
10468;DHT22;5281;48.878;9.394;2023-03-22T01:20:09;9.40;99.90
10468;DHT22;5281;48.878;9.394;2023-03-22T01:22:36;9.50;99.90
10468;DHT22;5281;48.878;9.394;2023-03-22T01:25:03;9.50;99.90
10468;DHT22;5281;48.878;9.394;2023-03-22T01:27:30;9.60;99.90
10468;DHT22;5281;48.878;9.394;2023-03-22T01:29:57;9.60;99.90
10468;DHT22;5281;48.878;9.394;2023-03-22T01:32:24;9.60;99.90
10468;DHT22;5281;48.878;9.394;2023-03-22T01:34:52;9.60;99.90
10468;DHT22;5281;48.878;9.394;2023-03-22T01:37:19;9.50;99.90
10468;DHT22;5281;48.878;9.394;2023-03-22T01:39:50;9.40;99.90
10468;DHT22;5281;48.878;9.394;2023-03-22T01:42:16;9.30;99.90
10468;DHT22;5281;48.878;9.394;2023-03-22T01:47:54;9.20;99.90
10468;DHT22;5281;48.878;9.394;2023-03-22T01:50:23;9.20;99.90
10468;DHT22;5281;48.878;9.394;2023-03-22T01:52:52;9.20;99.90
10468;DHT22;5281;48.878;9.394;2023-03-22T01:55:21;9.10;99.90
10468;DHT22;5281;48.878;9.394;2023-03-22T01:57:49;9.00;99.90
10468;DHT22;5281;48.878;9.394;2023-03-22T02:00:17;9.00;99.90
10468;DHT22;5281;48.878;9.394;2023-03-22T02:02:47;9.00;99.90
10468;DHT22;5281;48.878;9.394;2023-03-22T02:05:15;9.00;99.90
10468;DHT22;5281;48.878;9.394;2023-03-22T02:07:44;9.10;99.90
10468;DHT22;5281;48.878;9.394;2023-03-22T02:10:13;9.10;99.90
10468;DHT22;5281;48.878;9.394;2023-03-22T02:12:50;9.10;99.90
10468;DHT22;5281;48.878;9.394;2023-03-22T02:15:22;9.00;99.90
10468;DHT22;5281;48.878;9.394;2023-03-22T02:17:59;8.90;99.90
10468;DHT22;5281;48.878;9.394;2023-03-22T02:24:10;8.80;99.90
10468;DHT22;5281;48.878;9.394;2023-03-22T02:26:51;8.80;99.90
10468;DHT22;5281;48.878;9.394;2023-03-22T02:29:27;8.80;99.90
10468;DHT22;5281;48.878;9.394;2023-03-22T02:35:19;8.60;99.90
10468;DHT22;5281;48.878;9.394;2023-03-22T02:38:16;8.60;99.90
10468;DHT22;5281;48.878;9.394;2023-03-22T02:40:56;8.50;99.90
10468;DHT22;5281;48.878;9.394;2023-03-22T02:43:32;8.30;99.90
10468;DHT22;5281;48.878;9.394;2023-03-22T02:46:06;8.20;99.90
10468;DHT22;5281;48.878;9.394;2023-03-22T02:48:38;8.10;99.90
10468;DHT22;5281;48.878;9.394;2023-03-22T02:51:08;8.10;99.90
10468;DHT22;5281;48.878;9.394;2023-03-22T02:53:41;8.00;99.90
10468;DHT22;5281;48.878;9.394;2023-03-22T02:56:13;8.00;99.90
10468;DHT22;5281;48.878;9.394;2023-03-22T02:58:44;8.00;99.90
10468;DHT22;5281;48.878;9.394;2023-03-22T03:01:15;7.90;99.90
10468;DHT22;5281;48.878;9.394;2023-03-22T03:03:46;7.90;99.90
10468;DHT22;5281;48.878;9.394;2023-03-22T03:06:17;7.90;99.90
10468;DHT22;5281;48.878;9.394;2023-03-22T03:08:47;7.90;99.90
10468;DHT22;5281;48.878;9.394;2023-03-22T03:11:17;7.90;99.90
10468;DHT22;5281;48.878;9.394;2023-03-22T03:13:45;7.90;99.90
10468;DHT22;5281;48.878;9.394;2023-03-22T03:16:14;7.90;99.90
10468;DHT22;5281;48.878;9.394;2023-03-22T03:18:46;7.80;99.90
10468;DHT22;5281;48.878;9.394;2023-03-22T03:21:24;7.80;99.90
10468;DHT22;5281;48.878;9.394;2023-03-22T03:24:13;7.80;99.90
10468;DHT22;5281;48.878;9.394;2023-03-22T03:26:53;7.80;99.90
10468;DHT22;5281;48.878;9.394;2023-03-22T03:29:32;7.80;99.90
10468;DHT22;5281;48.878;9.394;2023-03-22T03:32:07;7.80;99.90
10468;DHT22;5281;48.878;9.394;2023-03-22T03:34:40;7.80;99.90
10468;DHT22;5281;48.878;9.394;2023-03-22T03:37:14;7.80;99.90
10468;DHT22;5281;48.878;9.394;2023-03-22T03:39:45;7.80;99.90
10468;DHT22;5281;48.878;9.394;2023-03-22T03:42:16;7.70;99.90
10468;DHT22;5281;48.878;9.394;2023-03-22T03:44:44;7.80;99.90
10468;DHT22;5281;48.878;9.394;2023-03-22T03:47:11;7.80;99.90
10468;DHT22;5281;48.878;9.394;2023-03-22T03:49:38;7.80;99.90
10468;DHT22;5281;48.878;9.394;2023-03-22T03:52:06;7.70;99.90
10468;DHT22;5281;48.878;9.394;2023-03-22T03:54:33;7.70;99.90
10468;DHT22;5281;48.878;9.394;2023-03-22T03:57:00;7.70;99.90
10468;DHT22;5281;48.878;9.394;2023-03-22T03:59:28;7.70;99.90
10468;DHT22;5281;48.878;9.394;2023-03-22T04:01:54;7.60;99.90
10468;DHT22;5281;48.878;9.394;2023-03-22T04:04:24;7.60;99.90
10468;DHT22;5281;48.878;9.394;2023-03-22T04:06:52;7.50;99.90
10468;DHT22;5281;48.878;9.394;2023-03-22T04:09:26;7.50;99.90
10468;DHT22;5281;48.878;9.394;2023-03-22T04:11:54;7.40;99.90
10468;DHT22;5281;48.878;9.394;2023-03-22T04:14:21;7.30;99.90
10468;DHT22;5281;48.878;9.394;2023-03-22T04:16:50;7.30;99.90
10468;DHT22;5281;48.878;9.394;2023-03-22T04:19:17;7.30;99.90
10468;DHT22;5281;48.878;9.394;2023-03-22T04:21:44;7.30;99.90
10468;DHT22;5281;48.878;9.394;2023-03-22T04:24:12;7.30;99.90
10468;DHT22;5281;48.878;9.394;2023-03-22T04:26:39;7.20;99.90
10468;DHT22;5281;48.878;9.394;2023-03-22T04:29:06;7.20;99.90
10468;DHT22;5281;48.878;9.394;2023-03-22T04:31:33;7.10;99.90
10468;DHT22;5281;48.878;9.394;2023-03-22T04:34:01;7.00;99.90
10468;DHT22;5281;48.878;9.394;2023-03-22T04:36:30;7.00;99.90
10468;DHT22;5281;48.878;9.394;2023-03-22T04:39:01;7.00;99.90
10468;DHT22;5281;48.878;9.394;2023-03-22T04:41:28;7.00;99.90
10468;DHT22;5281;48.878;9.394;2023-03-22T04:43:55;7.00;99.90
10468;DHT22;5281;48.878;9.394;2023-03-22T04:46:27;6.90;99.90
10468;DHT22;5281;48.878;9.394;2023-03-22T04:48:54;6.90;99.90
10468;DHT22;5281;48.878;9.394;2023-03-22T04:51:22;6.90;99.90
10468;DHT22;5281;48.878;9.394;2023-03-22T04:53:48;7.00;99.90
10468;DHT22;5281;48.878;9.394;2023-03-22T04:56:15;7.10;99.90
10468;DHT22;5281;48.878;9.394;2023-03-22T04:58:43;7.10;99.90
10468;DHT22;5281;48.878;9.394;2023-03-22T05:01:12;7.00;99.90
10468;DHT22;5281;48.878;9.394;2023-03-22T05:03:39;6.90;99.90
10468;DHT22;5281;48.878;9.394;2023-03-22T05:06:08;6.90;99.90
10468;DHT22;5281;48.878;9.394;2023-03-22T05:08:36;6.80;99.90
10468;DHT22;5281;48.878;9.394;2023-03-22T05:11:06;6.80;99.90
10468;DHT22;5281;48.878;9.394;2023-03-22T05:13:33;6.80;99.90
10468;DHT22;5281;48.878;9.394;2023-03-22T05:16:00;6.80;99.90
10468;DHT22;5281;48.878;9.394;2023-03-22T05:18:27;6.70;99.90
10468;DHT22;5281;48.878;9.394;2023-03-22T05:20:55;6.70;99.90
10468;DHT22;5281;48.878;9.394;2023-03-22T05:23:22;6.70;99.90
10468;DHT22;5281;48.878;9.394;2023-03-22T05:25:52;6.70;99.90
10468;DHT22;5281;48.878;9.394;2023-03-22T05:28:20;6.70;99.90
10468;DHT22;5281;48.878;9.394;2023-03-22T05:30:47;6.80;99.90
10468;DHT22;5281;48.878;9.394;2023-03-22T05:33:16;6.80;99.90
10468;DHT22;5281;48.878;9.394;2023-03-22T05:35:47;6.90;99.90
10468;DHT22;5281;48.878;9.394;2023-03-22T05:38:14;7.00;99.90
10468;DHT22;5281;48.878;9.394;2023-03-22T05:40:41;7.10;99.90
10468;DHT22;5281;48.878;9.394;2023-03-22T05:43:09;7.20;99.90
10468;DHT22;5281;48.878;9.394;2023-03-22T05:45:36;7.20;99.90
10468;DHT22;5281;48.878;9.394;2023-03-22T05:48:03;7.40;99.90
10468;DHT22;5281;48.878;9.394;2023-03-22T05:50:30;7.50;99.90
10468;DHT22;5281;48.878;9.394;2023-03-22T05:52:57;7.70;99.90
10468;DHT22;5281;48.878;9.394;2023-03-22T05:55:23;7.80;99.90
10468;DHT22;5281;48.878;9.394;2023-03-22T05:57:50;7.90;99.90
10468;DHT22;5281;48.878;9.394;2023-03-22T06:00:21;8.00;99.90
10468;DHT22;5281;48.878;9.394;2023-03-22T06:02:49;8.20;99.90
10468;DHT22;5281;48.878;9.394;2023-03-22T06:05:17;8.30;99.90
10468;DHT22;5281;48.878;9.394;2023-03-22T06:07:45;8.50;99.90
10468;DHT22;5281;48.878;9.394;2023-03-22T06:10:13;8.70;99.90
10468;DHT22;5281;48.878;9.394;2023-03-22T06:12:40;8.90;99.90
10468;DHT22;5281;48.878;9.394;2023-03-22T06:15:08;9.10;99.90
10468;DHT22;5281;48.878;9.394;2023-03-22T06:17:36;9.30;99.90
10468;DHT22;5281;48.878;9.394;2023-03-22T06:20:04;9.50;99.90
10468;DHT22;5281;48.878;9.394;2023-03-22T06:22:34;9.70;99.90
10468;DHT22;5281;48.878;9.394;2023-03-22T06:25:01;9.90;99.90
10468;DHT22;5281;48.878;9.394;2023-03-22T06:27:28;10.30;99.90
10468;DHT22;5281;48.878;9.394;2023-03-22T06:29:55;11.20;99.90
10468;DHT22;5281;48.878;9.394;2023-03-22T06:32:22;12.70;99.90
10468;DHT22;5281;48.878;9.394;2023-03-22T06:34:52;14.40;99.90
10468;DHT22;5281;48.878;9.394;2023-03-22T06:37:19;15.90;99.90
10468;DHT22;5281;48.878;9.394;2023-03-22T06:39:46;17.10;99.90
10468;DHT22;5281;48.878;9.394;2023-03-22T06:42:13;18.10;99.90
10468;DHT22;5281;48.878;9.394;2023-03-22T06:44:40;19.10;99.90
10468;DHT22;5281;48.878;9.394;2023-03-22T06:47:09;20.10;99.90
10468;DHT22;5281;48.878;9.394;2023-03-22T06:49:36;21.00;99.90
10468;DHT22;5281;48.878;9.394;2023-03-22T06:52:05;21.50;99.90
10468;DHT22;5281;48.878;9.394;2023-03-22T06:54:32;22.20;98.10
10468;DHT22;5281;48.878;9.394;2023-03-22T06:56:58;22.90;96.20
10468;DHT22;5281;48.878;9.394;2023-03-22T06:59:26;23.50;94.30
10468;DHT22;5281;48.878;9.394;2023-03-22T07:01:53;23.90;92.30
10468;DHT22;5281;48.878;9.394;2023-03-22T07:04:20;24.20;91.30
10468;DHT22;5281;48.878;9.394;2023-03-22T07:06:47;24.50;89.90
10468;DHT22;5281;48.878;9.394;2023-03-22T07:09:15;25.10;86.90
10468;DHT22;5281;48.878;9.394;2023-03-22T07:11:42;25.50;84.40
10468;DHT22;5281;48.878;9.394;2023-03-22T07:14:09;25.90;82.00
10468;DHT22;5281;48.878;9.394;2023-03-22T07:16:36;26.20;79.60
10468;DHT22;5281;48.878;9.394;2023-03-22T07:19:02;26.20;77.60
10468;DHT22;5281;48.878;9.394;2023-03-22T07:21:29;26.40;77.30
10468;DHT22;5281;48.878;9.394;2023-03-22T07:23:56;27.00;74.60
10468;DHT22;5281;48.878;9.394;2023-03-22T07:26:24;27.60;71.90
10468;DHT22;5281;48.878;9.394;2023-03-22T07:28:51;27.80;70.90
10468;DHT22;5281;48.878;9.394;2023-03-22T07:31:18;28.30;69.10
10468;DHT22;5281;48.878;9.394;2023-03-22T07:33:45;28.40;66.80
10468;DHT22;5281;48.878;9.394;2023-03-22T07:36:13;28.50;64.90
10468;DHT22;5281;48.878;9.394;2023-03-22T07:38:40;28.50;63.80
10468;DHT22;5281;48.878;9.394;2023-03-22T07:41:07;28.30;63.70
10468;DHT22;5281;48.878;9.394;2023-03-22T07:43:35;28.30;63.70
10468;DHT22;5281;48.878;9.394;2023-03-22T07:46:02;28.10;62.30
10468;DHT22;5281;48.878;9.394;2023-03-22T07:48:29;27.70;63.00
10468;DHT22;5281;48.878;9.394;2023-03-22T07:50:56;27.60;62.30
10468;DHT22;5281;48.878;9.394;2023-03-22T07:53:24;27.50;61.80
10468;DHT22;5281;48.878;9.394;2023-03-22T07:55:52;27.40;64.10
10468;DHT22;5281;48.878;9.394;2023-03-22T07:58:19;27.50;61.40
10468;DHT22;5281;48.878;9.394;2023-03-22T08:00:47;27.30;62.40
10468;DHT22;5281;48.878;9.394;2023-03-22T08:03:14;26.50;61.80
10468;DHT22;5281;48.878;9.394;2023-03-22T08:05:42;25.40;63.80
10468;DHT22;5281;48.878;9.394;2023-03-22T08:08:09;24.10;66.20
10468;DHT22;5281;48.878;9.394;2023-03-22T08:10:37;22.90;68.80
10468;DHT22;5281;48.878;9.394;2023-03-22T08:13:04;21.70;71.90
10468;DHT22;5281;48.878;9.394;2023-03-22T08:15:31;20.70;74.70
10468;DHT22;5281;48.878;9.394;2023-03-22T08:17:59;19.90;77.40
10468;DHT22;5281;48.878;9.394;2023-03-22T08:20:26;19.30;79.50
10468;DHT22;5281;48.878;9.394;2023-03-22T08:22:53;18.70;80.70
10468;DHT22;5281;48.878;9.394;2023-03-22T08:25:20;18.30;81.50
10468;DHT22;5281;48.878;9.394;2023-03-22T08:27:47;18.10;82.70
10468;DHT22;5281;48.878;9.394;2023-03-22T08:30:14;18.00;83.90
10468;DHT22;5281;48.878;9.394;2023-03-22T08:32:41;17.90;85.60
10468;DHT22;5281;48.878;9.394;2023-03-22T08:35:10;18.00;85.60
10468;DHT22;5281;48.878;9.394;2023-03-22T08:37:37;17.90;86.60
10468;DHT22;5281;48.878;9.394;2023-03-22T08:40:07;17.70;87.80
10468;DHT22;5281;48.878;9.394;2023-03-22T08:42:35;17.60;88.10
10468;DHT22;5281;48.878;9.394;2023-03-22T08:45:02;17.50;88.60
10468;DHT22;5281;48.878;9.394;2023-03-22T08:47:29;17.40;89.40
10468;DHT22;5281;48.878;9.394;2023-03-22T08:49:56;17.30;90.10
10468;DHT22;5281;48.878;9.394;2023-03-22T08:52:24;17.30;90.40
10468;DHT22;5281;48.878;9.394;2023-03-22T08:54:51;17.40;90.60
10468;DHT22;5281;48.878;9.394;2023-03-22T08:57:19;17.30;90.60
10468;DHT22;5281;48.878;9.394;2023-03-22T08:59:48;17.40;90.50
10468;DHT22;5281;48.878;9.394;2023-03-22T09:02:16;17.50;90.30
10468;DHT22;5281;48.878;9.394;2023-03-22T09:04:43;17.60;91.10
10468;DHT22;5281;48.878;9.394;2023-03-22T09:07:10;17.80;90.70
10468;DHT22;5281;48.878;9.394;2023-03-22T09:09:38;18.00;90.50
10468;DHT22;5281;48.878;9.394;2023-03-22T09:12:06;18.30;90.10
10468;DHT22;5281;48.878;9.394;2023-03-22T09:14:33;18.40;89.30
10468;DHT22;5281;48.878;9.394;2023-03-22T09:16:59;18.50;89.40
10468;DHT22;5281;48.878;9.394;2023-03-22T09:19:27;18.50;89.30
10468;DHT22;5281;48.878;9.394;2023-03-22T09:21:54;18.50;89.50
10468;DHT22;5281;48.878;9.394;2023-03-22T09:24:20;18.50;89.70
10468;DHT22;5281;48.878;9.394;2023-03-22T09:26:49;18.50;90.00
10468;DHT22;5281;48.878;9.394;2023-03-22T09:29:16;18.50;90.00
10468;DHT22;5281;48.878;9.394;2023-03-22T09:31:43;18.60;90.20
10468;DHT22;5281;48.878;9.394;2023-03-22T09:34:13;18.70;90.30
10468;DHT22;5281;48.878;9.394;2023-03-22T09:36:40;18.80;90.30
10468;DHT22;5281;48.878;9.394;2023-03-22T09:39:07;18.90;89.80
10468;DHT22;5281;48.878;9.394;2023-03-22T09:41:37;18.90;89.30
10468;DHT22;5281;48.878;9.394;2023-03-22T09:44:10;19.00;88.90
10468;DHT22;5281;48.878;9.394;2023-03-22T09:46:40;19.10;89.70
10468;DHT22;5281;48.878;9.394;2023-03-22T09:49:11;19.20;88.30
10468;DHT22;5281;48.878;9.394;2023-03-22T09:51:41;19.20;88.90
10468;DHT22;5281;48.878;9.394;2023-03-22T09:54:16;19.20;89.20
10468;DHT22;5281;48.878;9.394;2023-03-22T09:56:48;19.10;89.10
10468;DHT22;5281;48.878;9.394;2023-03-22T09:59:21;19.10;89.80
10468;DHT22;5281;48.878;9.394;2023-03-22T10:01:55;19.30;88.70
10468;DHT22;5281;48.878;9.394;2023-03-22T10:04:39;19.40;88.00
10468;DHT22;5281;48.878;9.394;2023-03-22T10:07:15;19.50;87.70
10468;DHT22;5281;48.878;9.394;2023-03-22T10:09:50;19.40;87.90
10468;DHT22;5281;48.878;9.394;2023-03-22T10:12:24;19.50;86.60
10468;DHT22;5281;48.878;9.394;2023-03-22T10:15:03;19.60;87.00
10468;DHT22;5281;48.878;9.394;2023-03-22T10:17:31;19.70;86.20
10468;DHT22;5281;48.878;9.394;2023-03-22T10:20:01;19.80;86.30
10468;DHT22;5281;48.878;9.394;2023-03-22T10:22:33;19.90;85.70
10468;DHT22;5281;48.878;9.394;2023-03-22T10:25:01;20.10;85.20
10468;DHT22;5281;48.878;9.394;2023-03-22T10:27:30;20.40;85.00
10468;DHT22;5281;48.878;9.394;2023-03-22T10:30:03;20.40;84.70
10468;DHT22;5281;48.878;9.394;2023-03-22T10:32:38;20.30;85.20
10468;DHT22;5281;48.878;9.394;2023-03-22T10:35:12;20.30;84.90
10468;DHT22;5281;48.878;9.394;2023-03-22T10:37:40;20.30;85.50
10468;DHT22;5281;48.878;9.394;2023-03-22T10:40:15;20.40;84.50
10468;DHT22;5281;48.878;9.394;2023-03-22T10:42:50;20.40;83.70
10468;DHT22;5281;48.878;9.394;2023-03-22T10:45:20;20.40;84.40
10468;DHT22;5281;48.878;9.394;2023-03-22T10:47:55;20.40;83.80
10468;DHT22;5281;48.878;9.394;2023-03-22T10:50:28;20.40;83.20
10468;DHT22;5281;48.878;9.394;2023-03-22T10:53:00;20.40;83.70
10468;DHT22;5281;48.878;9.394;2023-03-22T10:55:28;20.40;84.30
10468;DHT22;5281;48.878;9.394;2023-03-22T10:58:00;20.40;83.40
10468;DHT22;5281;48.878;9.394;2023-03-22T11:00:35;20.40;83.30
10468;DHT22;5281;48.878;9.394;2023-03-22T11:03:04;20.60;83.00
10468;DHT22;5281;48.878;9.394;2023-03-22T11:05:32;20.60;85.10
10468;DHT22;5281;48.878;9.394;2023-03-22T11:08:01;20.70;85.50
10468;DHT22;5281;48.878;9.394;2023-03-22T11:10:30;21.00;84.20
10468;DHT22;5281;48.878;9.394;2023-03-22T11:13:15;21.20;83.30
10468;DHT22;5281;48.878;9.394;2023-03-22T11:15:51;21.40;82.70
10468;DHT22;5281;48.878;9.394;2023-03-22T11:18:19;21.70;82.60
10468;DHT22;5281;48.878;9.394;2023-03-22T11:20:56;21.90;81.10
10468;DHT22;5281;48.878;9.394;2023-03-22T11:23:24;22.10;81.10
10468;DHT22;5281;48.878;9.394;2023-03-22T11:25:54;22.10;80.60
10468;DHT22;5281;48.878;9.394;2023-03-22T11:28:26;22.10;81.50
10468;DHT22;5281;48.878;9.394;2023-03-22T11:31:00;22.10;80.40
10468;DHT22;5281;48.878;9.394;2023-03-22T11:33:28;22.30;79.80
10468;DHT22;5281;48.878;9.394;2023-03-22T11:35:57;22.40;78.90
10468;DHT22;5281;48.878;9.394;2023-03-22T11:38:27;22.60;77.90
10468;DHT22;5281;48.878;9.394;2023-03-22T11:40:58;22.80;77.80
10468;DHT22;5281;48.878;9.394;2023-03-22T11:43:30;23.00;77.60
10468;DHT22;5281;48.878;9.394;2023-03-22T11:45:59;23.10;76.90
10468;DHT22;5281;48.878;9.394;2023-03-22T11:48:28;23.00;77.40
10468;DHT22;5281;48.878;9.394;2023-03-22T11:51:02;22.90;77.30
10468;DHT22;5281;48.878;9.394;2023-03-22T11:53:32;22.80;78.00
10468;DHT22;5281;48.878;9.394;2023-03-22T11:56:02;22.70;78.10
10468;DHT22;5281;48.878;9.394;2023-03-22T11:58:44;22.70;79.00
10468;DHT22;5281;48.878;9.394;2023-03-22T12:01:17;22.60;79.30
10468;DHT22;5281;48.878;9.394;2023-03-22T12:03:53;22.60;79.10
10468;DHT22;5281;48.878;9.394;2023-03-22T12:06:25;22.70;78.80
10468;DHT22;5281;48.878;9.394;2023-03-22T12:08:56;22.80;78.00
10468;DHT22;5281;48.878;9.394;2023-03-22T12:11:27;23.10;77.10
10468;DHT22;5281;48.878;9.394;2023-03-22T12:13:58;23.40;77.20
10468;DHT22;5281;48.878;9.394;2023-03-22T12:16:30;23.60;76.80
10468;DHT22;5281;48.878;9.394;2023-03-22T12:19:05;23.40;76.40
10468;DHT22;5281;48.878;9.394;2023-03-22T12:21:39;23.20;78.50
10468;DHT22;5281;48.878;9.394;2023-03-22T12:24:24;23.30;76.50
10468;DHT22;5281;48.878;9.394;2023-03-22T12:26:54;23.00;78.30
10468;DHT22;5281;48.878;9.394;2023-03-22T12:29:23;23.10;78.40
10468;DHT22;5281;48.878;9.394;2023-03-22T12:31:57;23.10;78.40
10468;DHT22;5281;48.878;9.394;2023-03-22T12:34:34;23.20;79.70
10468;DHT22;5281;48.878;9.394;2023-03-22T12:37:05;23.10;79.70
10468;DHT22;5281;48.878;9.394;2023-03-22T12:39:36;22.80;80.30
10468;DHT22;5281;48.878;9.394;2023-03-22T12:42:10;22.60;81.60
10468;DHT22;5281;48.878;9.394;2023-03-22T12:44:41;22.40;82.40
10468;DHT22;5281;48.878;9.394;2023-03-22T12:47:17;22.20;79.80
10468;DHT22;5281;48.878;9.394;2023-03-22T12:49:52;22.20;80.70
10468;DHT22;5281;48.878;9.394;2023-03-22T12:52:33;22.30;81.60
10468;DHT22;5281;48.878;9.394;2023-03-22T12:55:02;22.30;81.80
10468;DHT22;5281;48.878;9.394;2023-03-22T12:57:30;22.40;81.50
10468;DHT22;5281;48.878;9.394;2023-03-22T12:59:58;22.50;80.50
10468;DHT22;5281;48.878;9.394;2023-03-22T13:02:36;22.50;79.40
10468;DHT22;5281;48.878;9.394;2023-03-22T13:05:04;22.80;79.40
10468;DHT22;5281;48.878;9.394;2023-03-22T13:07:41;23.00;77.20
10468;DHT22;5281;48.878;9.394;2023-03-22T13:13:40;22.80;75.90
10468;DHT22;5281;48.878;9.394;2023-03-22T13:16:42;22.90;75.70
10468;DHT22;5281;48.878;9.394;2023-03-22T13:19:29;23.20;76.10
10468;DHT22;5281;48.878;9.394;2023-03-22T13:22:20;23.50;74.60
10468;DHT22;5281;48.878;9.394;2023-03-22T13:25:00;23.20;74.40
10468;DHT22;5281;48.878;9.394;2023-03-22T13:27:36;22.80;75.10
10468;DHT22;5281;48.878;9.394;2023-03-22T13:30:05;22.60;76.00
10468;DHT22;5281;48.878;9.394;2023-03-22T13:32:35;22.40;77.50
10468;DHT22;5281;48.878;9.394;2023-03-22T13:35:15;22.50;76.60
10468;DHT22;5281;48.878;9.394;2023-03-22T13:37:47;22.60;76.50
10468;DHT22;5281;48.878;9.394;2023-03-22T13:40:26;22.80;76.20
10468;DHT22;5281;48.878;9.394;2023-03-22T13:43:08;23.00;75.80
10468;DHT22;5281;48.878;9.394;2023-03-22T13:45:35;22.70;72.20
10468;DHT22;5281;48.878;9.394;2023-03-22T13:48:05;22.60;71.80
10468;DHT22;5281;48.878;9.394;2023-03-22T13:50:37;22.60;72.10
10468;DHT22;5281;48.878;9.394;2023-03-22T13:53:06;22.80;71.80
10468;DHT22;5281;48.878;9.394;2023-03-22T13:55:56;23.00;72.30
10468;DHT22;5281;48.878;9.394;2023-03-22T13:58:36;23.30;72.00
10468;DHT22;5281;48.878;9.394;2023-03-22T14:01:16;23.30;68.40
10468;DHT22;5281;48.878;9.394;2023-03-22T14:03:44;23.10;68.60
10468;DHT22;5281;48.878;9.394;2023-03-22T14:06:19;23.10;69.60
10468;DHT22;5281;48.878;9.394;2023-03-22T14:08:51;23.20;69.30
10468;DHT22;5281;48.878;9.394;2023-03-22T14:11:24;23.30;69.00
10468;DHT22;5281;48.878;9.394;2023-03-22T14:13:56;23.50;68.10
10468;DHT22;5281;48.878;9.394;2023-03-22T14:16:34;23.60;66.40
10468;DHT22;5281;48.878;9.394;2023-03-22T14:19:03;23.70;65.90
10468;DHT22;5281;48.878;9.394;2023-03-22T14:21:33;23.70;66.60
10468;DHT22;5281;48.878;9.394;2023-03-22T14:24:03;23.80;66.70
10468;DHT22;5281;48.878;9.394;2023-03-22T14:26:34;23.90;65.50
10468;DHT22;5281;48.878;9.394;2023-03-22T14:29:12;23.90;63.70
10468;DHT22;5281;48.878;9.394;2023-03-22T14:31:40;24.00;63.80
10468;DHT22;5281;48.878;9.394;2023-03-22T14:34:11;23.90;63.70
10468;DHT22;5281;48.878;9.394;2023-03-22T14:36:44;23.90;63.70
10468;DHT22;5281;48.878;9.394;2023-03-22T14:39:18;23.90;63.00
10468;DHT22;5281;48.878;9.394;2023-03-22T14:41:56;23.90;63.30
10468;DHT22;5281;48.878;9.394;2023-03-22T14:44:23;23.80;63.70
10468;DHT22;5281;48.878;9.394;2023-03-22T14:46:50;24.00;63.00
10468;DHT22;5281;48.878;9.394;2023-03-22T14:49:25;24.20;61.80
10468;DHT22;5281;48.878;9.394;2023-03-22T14:51:54;24.10;61.40
10468;DHT22;5281;48.878;9.394;2023-03-22T14:54:22;24.10;61.30
10468;DHT22;5281;48.878;9.394;2023-03-22T14:56:52;24.10;63.00
10468;DHT22;5281;48.878;9.394;2023-03-22T14:59:24;24.20;62.70
10468;DHT22;5281;48.878;9.394;2023-03-22T15:01:54;24.10;61.80
10468;DHT22;5281;48.878;9.394;2023-03-22T15:04:22;24.00;62.30
10468;DHT22;5281;48.878;9.394;2023-03-22T15:06:56;23.70;62.00
10468;DHT22;5281;48.878;9.394;2023-03-22T15:09:23;23.60;62.40
10468;DHT22;5281;48.878;9.394;2023-03-22T15:11:53;23.50;62.00
10468;DHT22;5281;48.878;9.394;2023-03-22T15:14:22;23.40;62.30
10468;DHT22;5281;48.878;9.394;2023-03-22T15:16:49;23.20;62.50
10468;DHT22;5281;48.878;9.394;2023-03-22T15:19:18;23.10;63.50
10468;DHT22;5281;48.878;9.394;2023-03-22T15:22:02;23.10;64.50
10468;DHT22;5281;48.878;9.394;2023-03-22T15:24:33;23.00;62.70
10468;DHT22;5281;48.878;9.394;2023-03-22T15:27:01;22.90;63.30
10468;DHT22;5281;48.878;9.394;2023-03-22T15:29:28;22.80;63.40
10468;DHT22;5281;48.878;9.394;2023-03-22T15:31:58;22.70;62.60
10468;DHT22;5281;48.878;9.394;2023-03-22T15:34:28;22.50;62.10
10468;DHT22;5281;48.878;9.394;2023-03-22T15:36:57;22.40;62.50
10468;DHT22;5281;48.878;9.394;2023-03-22T15:39:33;22.40;62.90
10468;DHT22;5281;48.878;9.394;2023-03-22T15:42:11;22.30;62.90
10468;DHT22;5281;48.878;9.394;2023-03-22T15:44:39;22.20;64.20
10468;DHT22;5281;48.878;9.394;2023-03-22T15:47:15;22.10;64.70
10468;DHT22;5281;48.878;9.394;2023-03-22T15:49:46;22.00;65.00
10468;DHT22;5281;48.878;9.394;2023-03-22T15:52:16;21.90;65.70
10468;DHT22;5281;48.878;9.394;2023-03-22T15:54:45;21.70;66.10
10468;DHT22;5281;48.878;9.394;2023-03-22T15:57:18;21.60;66.80
10468;DHT22;5281;48.878;9.394;2023-03-22T15:59:51;21.50;67.40
10468;DHT22;5281;48.878;9.394;2023-03-22T16:02:24;21.30;68.20
10468;DHT22;5281;48.878;9.394;2023-03-22T16:04:52;21.20;69.10
10468;DHT22;5281;48.878;9.394;2023-03-22T16:07:20;21.10;69.30
10468;DHT22;5281;48.878;9.394;2023-03-22T16:09:48;21.10;69.90
10468;DHT22;5281;48.878;9.394;2023-03-22T16:12:16;21.00;69.90
10468;DHT22;5281;48.878;9.394;2023-03-22T16:14:43;20.90;70.30
10468;DHT22;5281;48.878;9.394;2023-03-22T16:17:13;20.90;70.80
10468;DHT22;5281;48.878;9.394;2023-03-22T16:19:41;20.70;72.50
10468;DHT22;5281;48.878;9.394;2023-03-22T16:22:10;20.70;73.50
10468;DHT22;5281;48.878;9.394;2023-03-22T16:24:37;20.50;73.40